Bezoek ook deze websites:

Weerstation Noordbergum

Weerstation in Leuven


U vindt ons ook hier:

Weather Underground


METAR rapporten vliegvelden

   
EHGG - Groningen/Eelde, Netherlands
Afstand tot: ONO 18 km
Gewijzigd: 30-09-2022 20:55
Gedeeltelijk bewolkt  
Gedeeltelijk bewolkt  
   Wind: Zuiden 14.8 km/h
Wind: Zuiden 14.8 km/h
Temperatuur: 12°C
Dauwpunt: 8°C
Vochtigheid: 77%
Barometer: 1005 hPa
Bewolking: Gedeeltelijk bewolkt
Zicht: meer dan 10 km
Bewolking: Gedeeltelijk bewolkt
EHGG 301855Z AUTO 17008KT 140V200 9999 NSC 12/08 Q1005 NOSIG
EHLW - Leeuwarden Rnlaf, Netherlands
Afstand tot: WNW 45 km
Gewijzigd: 30-09-2022 20:55
Bewolking  
Bewolking  
   Wind: Zuiden 20.4 km/h
Wind: Zuiden 20.4 km/h
Temperatuur: 13°C
Dauwpunt: 8°C
Vochtigheid: 72%
Barometer: 1004 hPa
Bewolking: Bewolking
Zicht: meer dan 10 km
Bewolking: Gedeeltelijk bewolkt 5000 ft,
Grotendeels bewolkt 5900 ft,
Bewolking 7700 ft
EHLW 301855Z AUTO 17011KT 130V210 9999 SCT050 BKN059 OVC077 13/08 Q1004 BLU
EHVL - Vlieland Island, Netherlands
Afstand tot: WNW 98 km
Gewijzigd: 30-09-2022 20:55
Grotendeels bewolkt  
Grotendeels bewolkt  
   Wind: Zuiden 37 km/h
Wind: Zuiden 37 km/h
Temperatuur: 14°C
Dauwpunt: 10°C
Vochtigheid: 77%
Barometer: 1002 hPa
Bewolking: Grotendeels bewolkt
Zicht: meer dan 10 km
Bewolking: Gedeeltelijk bewolkt 3400 ft,
Gedeeltelijk bewolkt 4400 ft,
Grotendeels bewolkt 5500 ft
EHVL 301855Z AUTO 19020KT 9999 SCT034 SCT044 BKN055 14/10 Q1002 BLU
EHKD - De Kooy (navy), Netherlands
Afstand tot: W 106 km
Gewijzigd: 30-09-2022 20:55
Bewolking  
Bewolking  
   Wind: Zuiden 25.9 km/h
Wind: Zuiden 25.9 km/h
Temperatuur: 15°C
Dauwpunt: 9°C
Vochtigheid: 68%
Barometer: 1003 hPa
Bewolking: Bewolking
Zicht: meer dan 10 km
Bewolking: Grotendeels bewolkt 3300 ft,
Grotendeels bewolkt 3800 ft,
Bewolking 4300 ft
EHKD 301855Z AUTO 19014KT 9999 BKN033 BKN038 OVC043 15/09 Q1003 BLU
EHDL - Deelen Rnlafb, Netherlands
Afstand tot: ZZW 112 km
Gewijzigd: 30-09-2022 20:55
Bewolking  
Bewolking  
   Wind: Zuiden 14.8 km/h
Wind: Zuiden 14.8 km/h
Temperatuur: 13°C
Dauwpunt: 8°C
Vochtigheid: 72%
Barometer: 1007 hPa
Bewolking: Bewolking
Zicht: meer dan 10 km
Bewolking: Bewolking 20000 ft
EHDL 301855Z AUTO 18008KT 120V230 9999 OVC200 13/08 Q1007 BLU
EHAM - Amsterdam/Schiph, Netherlands
Afstand tot: ZW 132 km
Gewijzigd: 30-09-2022 20:55
Helder  
Helder  
   Wind: Zuiden 27.8 km/h
Wind: Zuiden 27.8 km/h
Temperatuur: 14°C
Dauwpunt: 8°C
Vochtigheid: 67%
Barometer: 1005 hPa
Zicht: meer dan 10 km
Bewolking: Helder
EHAM 301855Z 18015KT CAVOK 14/08 Q1005 NOSIG

Script ontwikkeld door  Saratoga-weather.org Aangepast voor de template door  Weerstation Leuven

Apparatuur in gebruik:

Weerstation
Davis VP2

Weerprogramma
Meteobridge

Weercomputer
TP-link TL-MR3020

Webleverancier
Versio

Davis VP2

Meteobridge

TP-link TL-MR3020

Versio